createdAt,value
2018-08-25T00:00:27.554Z,13.40
2018-08-25T00:02:55.224Z,13.50
2018-08-25T00:05:23.010Z,13.40
2018-08-25T00:07:51.151Z,13.40
2018-08-25T00:10:18.925Z,13.30
2018-08-25T00:12:46.760Z,13.20
2018-08-25T00:15:14.466Z,13.20
2018-08-25T00:17:42.305Z,12.40
2018-08-25T00:20:10.115Z,13.10
2018-08-25T00:22:37.751Z,13.20
2018-08-25T00:25:05.635Z,13.10
2018-08-25T00:27:33.398Z,13.10
2018-08-25T00:30:01.058Z,13.10
2018-08-25T00:32:28.848Z,13.20
2018-08-25T00:34:56.608Z,13.20
2018-08-25T00:37:24.514Z,13.10
2018-08-25T00:39:52.264Z,13.00
2018-08-25T00:42:20.061Z,12.90
2018-08-25T00:44:47.871Z,12.90
2018-08-25T00:47:15.556Z,12.80
2018-08-25T00:49:43.240Z,12.80
2018-08-25T00:52:11.244Z,12.70
2018-08-25T00:54:38.916Z,12.50
2018-08-25T00:57:06.620Z,12.50
2018-08-25T00:59:34.612Z,12.50
2018-08-25T01:02:02.272Z,12.30
2018-08-25T01:04:30.088Z,12.30
2018-08-25T01:06:57.818Z,12.30
2018-08-25T01:09:25.691Z,12.40
2018-08-25T01:11:53.382Z,12.40
2018-08-25T01:14:21.198Z,12.40
2018-08-25T01:16:49.088Z,12.50
2018-08-25T01:19:16.755Z,12.60
2018-08-25T01:21:44.417Z,12.60
2018-08-25T01:24:12.117Z,12.60
2018-08-25T01:26:39.851Z,12.50
2018-08-25T01:29:07.504Z,12.70
2018-08-25T01:31:35.361Z,12.60
2018-08-25T01:34:03.263Z,12.70
2018-08-25T01:36:30.977Z,12.70
2018-08-25T01:38:58.794Z,12.70
2018-08-25T01:41:26.492Z,12.60
2018-08-25T01:43:54.171Z,12.50
2018-08-25T01:46:22.102Z,12.50
2018-08-25T01:48:50.004Z,12.40
2018-08-25T01:51:17.666Z,12.40
2018-08-25T01:53:45.518Z,12.40
2018-08-25T01:56:13.407Z,12.30
2018-08-25T01:58:41.172Z,12.30
2018-08-25T02:01:09.100Z,12.30
2018-08-25T02:03:36.764Z,12.30
2018-08-25T02:06:04.599Z,12.40
2018-08-25T02:08:32.243Z,12.40
2018-08-25T02:10:59.920Z,12.50
2018-08-25T02:13:27.624Z,12.50
2018-08-25T02:15:55.323Z,12.50
2018-08-25T02:18:23.161Z,12.50
2018-08-25T02:20:50.841Z,12.40
2018-08-25T02:23:18.775Z,12.40
2018-08-25T02:25:46.445Z,12.40
2018-08-25T02:28:14.203Z,12.40
2018-08-25T02:30:42.484Z,12.40
2018-08-25T02:33:10.188Z,12.50
2018-08-25T02:35:38.148Z,12.50
2018-08-25T02:38:05.988Z,12.40
2018-08-25T02:40:33.939Z,12.30
2018-08-25T02:43:01.879Z,12.30
2018-08-25T02:45:29.674Z,12.20
2018-08-25T02:47:57.414Z,12.20
2018-08-25T02:50:25.128Z,12.20
2018-08-25T02:52:53.219Z,12.10
2018-08-25T02:55:20.945Z,12.10
2018-08-25T02:57:48.785Z,12.10
2018-08-25T03:00:16.691Z,12.20
2018-08-25T03:02:44.770Z,12.10
2018-08-25T03:05:12.471Z,12.00
2018-08-25T03:07:40.165Z,11.90
2018-08-25T03:10:08.020Z,11.80
2018-08-25T03:12:35.763Z,11.80
2018-08-25T03:15:03.558Z,11.70
2018-08-25T03:17:31.270Z,11.80
2018-08-25T03:19:59.162Z,11.90
2018-08-25T03:22:26.878Z,12.10
2018-08-25T03:24:55.012Z,12.20
2018-08-25T03:27:23.123Z,12.30
2018-08-25T03:29:51.102Z,12.30
2018-08-25T03:32:18.856Z,12.30
2018-08-25T03:34:46.590Z,12.30
2018-08-25T03:37:14.222Z,12.20
2018-08-25T03:39:41.882Z,12.20
2018-08-25T03:42:09.646Z,12.20
2018-08-25T03:44:37.270Z,12.10
2018-08-25T03:47:05.508Z,12.10
2018-08-25T03:49:34.825Z,12.10
2018-08-25T03:52:02.488Z,12.10
2018-08-25T03:54:30.195Z,12.10
2018-08-25T03:56:57.948Z,12.20
2018-08-25T03:59:25.603Z,12.30
2018-08-25T04:01:53.265Z,12.20
2018-08-25T04:04:20.991Z,12.20
2018-08-25T04:06:48.715Z,12.20
2018-08-25T04:09:16.526Z,12.20
2018-08-25T04:11:44.232Z,12.10
2018-08-25T04:14:12.777Z,12.10
2018-08-25T04:16:40.483Z,12.20
2018-08-25T04:19:14.127Z,12.20
2018-08-25T04:21:41.743Z,12.20
2018-08-25T04:24:09.363Z,12.30
2018-08-25T04:26:37.152Z,12.40
2018-08-25T04:29:05.063Z,12.50
2018-08-25T04:31:32.739Z,12.50
2018-08-25T04:34:00.509Z,12.70
2018-08-25T04:36:28.619Z,12.80
2018-08-25T04:38:56.302Z,12.90
2018-08-25T04:41:24.151Z,13.00
2018-08-25T04:43:52.061Z,13.20
2018-08-25T04:46:20.009Z,13.20
2018-08-25T04:48:47.853Z,13.30
2018-08-25T04:51:15.698Z,13.40
2018-08-25T04:53:44.263Z,13.40
2018-08-25T04:56:11.951Z,13.40
2018-08-25T04:58:39.731Z,13.40
2018-08-25T05:01:08.183Z,13.40
2018-08-25T05:03:36.800Z,13.50
2018-08-25T05:06:04.751Z,13.60
2018-08-25T05:08:32.723Z,13.50
2018-08-25T05:11:00.508Z,13.60
2018-08-25T05:13:28.718Z,13.60
2018-08-25T05:15:56.738Z,13.60
2018-08-25T05:18:24.440Z,13.60
2018-08-25T05:20:52.279Z,13.70
2018-08-25T05:23:20.656Z,13.70
2018-08-25T05:25:48.598Z,13.70
2018-08-25T05:28:16.304Z,13.70
2018-08-25T05:30:44.099Z,13.70
2018-08-25T05:33:11.846Z,13.70
2018-08-25T05:35:39.994Z,13.80
2018-08-25T05:38:07.698Z,13.80
2018-08-25T05:40:35.492Z,13.80
2018-08-25T05:43:03.227Z,13.90
2018-08-25T05:45:30.934Z,14.00
2018-08-25T05:47:58.760Z,14.00
2018-08-25T05:50:26.500Z,14.10
2018-08-25T05:52:54.187Z,14.10
2018-08-25T05:55:22.047Z,14.20
2018-08-25T05:57:49.823Z,14.30
2018-08-25T06:00:17.527Z,14.30
2018-08-25T06:02:45.396Z,14.40
2018-08-25T06:05:13.151Z,14.50
2018-08-25T06:07:41.023Z,14.60
2018-08-25T06:10:08.754Z,14.60
2018-08-25T06:12:36.817Z,14.70
2018-08-25T06:15:04.567Z,14.70
2018-08-25T06:17:32.542Z,14.80
2018-08-25T06:20:00.382Z,14.80
2018-08-25T06:22:28.428Z,14.90
2018-08-25T06:24:56.350Z,15.00
2018-08-25T06:27:24.043Z,15.00
2018-08-25T06:29:51.933Z,15.00
2018-08-25T06:32:19.578Z,15.10
2018-08-25T06:34:47.419Z,15.10
2018-08-25T06:37:15.176Z,15.20
2018-08-25T06:39:44.645Z,15.20
2018-08-25T06:42:13.122Z,15.30
2018-08-25T06:44:40.771Z,15.30
2018-08-25T06:47:08.512Z,15.40
2018-08-25T06:49:36.718Z,15.40
2018-08-25T06:52:04.652Z,15.40
2018-08-25T06:54:32.478Z,15.30
2018-08-25T06:57:00.382Z,15.30
2018-08-25T06:59:28.371Z,15.30
2018-08-25T07:01:56.525Z,15.30
2018-08-25T07:04:24.543Z,15.30
2018-08-25T07:06:52.275Z,15.30
2018-08-25T07:09:20.291Z,15.30
2018-08-25T07:11:48.017Z,15.40
2018-08-25T07:14:15.903Z,15.30
2018-08-25T07:16:43.779Z,15.30
2018-08-25T07:19:11.728Z,15.30
2018-08-25T07:21:39.582Z,15.30
2018-08-25T07:24:07.564Z,15.30
2018-08-25T07:26:35.496Z,15.30
2018-08-25T07:29:03.196Z,15.20
2018-08-25T07:31:30.952Z,15.20
2018-08-25T07:33:58.721Z,15.20
2018-08-25T07:36:26.759Z,15.20
2018-08-25T07:38:54.460Z,15.20
2018-08-25T07:41:25.212Z,15.20
2018-08-25T07:43:52.853Z,15.20
2018-08-25T07:46:20.831Z,15.20
2018-08-25T07:48:48.546Z,15.20
2018-08-25T07:51:16.291Z,15.20
2018-08-25T07:53:44.046Z,15.20
2018-08-25T07:56:11.810Z,15.20
2018-08-25T07:58:39.717Z,15.20
2018-08-25T08:01:07.703Z,15.20
2018-08-25T08:03:35.511Z,15.30
2018-08-25T08:06:03.190Z,15.30
2018-08-25T08:08:31.134Z,15.30
2018-08-25T08:10:58.767Z,15.30
2018-08-25T08:13:26.738Z,15.40
2018-08-25T08:15:54.482Z,15.50
2018-08-25T08:18:22.096Z,15.50
2018-08-25T08:20:49.886Z,15.60
2018-08-25T08:23:17.532Z,15.70
2018-08-25T08:25:45.280Z,15.70
2018-08-25T08:28:12.935Z,15.80
2018-08-25T08:30:40.840Z,16.00
2018-08-25T08:33:10.812Z,16.10
2018-08-25T08:35:38.598Z,16.30
2018-08-25T08:38:06.668Z,16.30
2018-08-25T08:40:34.847Z,16.50
2018-08-25T08:43:02.598Z,16.70
2018-08-25T08:45:30.314Z,16.90
2018-08-25T08:47:58.108Z,17.10
2018-08-25T08:50:25.835Z,17.30
2018-08-25T08:52:53.472Z,17.50
2018-08-25T08:55:21.788Z,17.60
2018-08-25T08:57:49.675Z,17.60
2018-08-25T09:00:17.400Z,17.70
2018-08-25T09:02:45.228Z,17.50
2018-08-25T09:05:12.948Z,17.30
2018-08-25T09:07:40.795Z,17.10
2018-08-25T09:10:08.590Z,17.10
2018-08-25T09:12:36.288Z,17.10
2018-08-25T09:15:04.296Z,17.10
2018-08-25T09:17:33.202Z,17.00
2018-08-25T09:20:00.904Z,16.90
2018-08-25T09:22:28.599Z,17.00
2018-08-25T09:24:56.372Z,16.90
2018-08-25T09:27:24.128Z,16.80
2018-08-25T09:29:51.779Z,16.70
2018-08-25T09:32:19.767Z,16.50
2018-08-25T09:34:47.485Z,16.50
2018-08-25T09:37:15.272Z,16.50
2018-08-25T09:39:43.116Z,16.50
2018-08-25T09:42:10.839Z,16.50
2018-08-25T09:44:38.606Z,16.60
2018-08-25T09:47:06.619Z,16.70
2018-08-25T09:49:34.346Z,16.80
2018-08-25T09:52:02.207Z,16.80
2018-08-25T09:54:29.932Z,16.90
2018-08-25T09:56:57.921Z,16.90
2018-08-25T09:59:25.599Z,16.80
2018-08-25T10:01:58.466Z,16.60
2018-08-25T10:04:26.226Z,16.40
2018-08-25T10:06:54.178Z,16.30
2018-08-25T10:09:21.903Z,16.30
2018-08-25T10:11:56.442Z,16.10
2018-08-25T10:14:24.246Z,15.90
2018-08-25T10:16:52.110Z,15.90
2018-08-25T10:19:19.811Z,15.80
2018-08-25T10:21:47.656Z,15.80
2018-08-25T10:24:16.347Z,15.70
2018-08-25T10:26:44.100Z,15.70
2018-08-25T10:29:11.779Z,15.60
2018-08-25T10:31:39.447Z,15.50
2018-08-25T10:34:07.535Z,15.40
2018-08-25T10:36:35.311Z,15.40
2018-08-25T10:39:05.348Z,15.30
2018-08-25T10:41:33.046Z,15.20
2018-08-25T10:44:00.936Z,15.20
2018-08-25T10:46:28.816Z,15.20
2018-08-25T10:48:56.498Z,15.20
2018-08-25T10:51:24.232Z,15.10
2018-08-25T10:53:52.134Z,15.10
2018-08-25T10:56:19.979Z,15.00
2018-08-25T10:58:47.774Z,15.00
2018-08-25T11:01:15.685Z,14.90
2018-08-25T11:03:43.482Z,14.80
2018-08-25T11:06:11.409Z,14.40
2018-08-25T11:08:39.171Z,14.00
2018-08-25T11:11:06.917Z,13.90
2018-08-25T11:13:34.821Z,14.00
2018-08-25T11:16:02.563Z,14.00
2018-08-25T11:18:30.348Z,14.10
2018-08-25T11:20:58.721Z,14.10
2018-08-25T11:23:27.491Z,14.00
2018-08-25T11:25:55.192Z,13.80
2018-08-25T11:28:22.967Z,13.90
2018-08-25T11:30:50.769Z,13.90
2018-08-25T11:33:18.482Z,13.90
2018-08-25T11:35:46.169Z,14.00
2018-08-25T11:38:13.861Z,14.00
2018-08-25T11:40:41.623Z,14.10
2018-08-25T11:43:09.361Z,14.20
2018-08-25T11:45:37.251Z,14.30
2018-08-25T11:48:05.099Z,14.50
2018-08-25T11:50:32.811Z,14.70
2018-08-25T11:53:00.670Z,14.90
2018-08-25T11:55:28.486Z,15.10
2018-08-25T11:57:56.156Z,15.20
2018-08-25T12:00:23.848Z,15.30
2018-08-25T12:02:51.498Z,15.50
2018-08-25T12:05:19.389Z,15.50
2018-08-25T12:07:47.093Z,15.50
2018-08-25T12:10:14.771Z,15.50
2018-08-25T12:12:42.432Z,15.60
2018-08-25T12:15:10.148Z,15.60
2018-08-25T12:17:37.782Z,15.70
2018-08-25T12:20:06.019Z,15.80
2018-08-25T12:22:34.826Z,15.80
2018-08-25T12:25:02.607Z,15.90
2018-08-25T12:27:30.281Z,16.00
2018-08-25T12:29:57.950Z,16.20
2018-08-25T12:32:25.689Z,16.10
2018-08-25T12:34:53.410Z,16.20
2018-08-25T12:37:21.238Z,16.20
2018-08-25T12:39:48.985Z,16.40
2018-08-25T12:42:16.771Z,16.40
2018-08-25T12:44:44.491Z,16.50
2018-08-25T12:47:12.399Z,16.50
2018-08-25T12:49:40.104Z,16.50
2018-08-25T12:52:07.979Z,16.60
2018-08-25T12:54:35.773Z,16.60
2018-08-25T12:57:03.571Z,16.60
2018-08-25T12:59:31.374Z,16.60
2018-08-25T13:01:59.137Z,16.70
2018-08-25T13:04:26.952Z,16.90
2018-08-25T13:06:54.679Z,17.00
2018-08-25T13:09:22.411Z,17.30
2018-08-25T13:11:50.231Z,17.30
2018-08-25T13:14:17.976Z,17.50
2018-08-25T13:16:45.881Z,17.60
2018-08-25T13:19:13.620Z,17.80
2018-08-25T13:21:41.315Z,18.00
2018-08-25T13:24:09.567Z,18.00
2018-08-25T13:26:37.271Z,17.90
2018-08-25T13:29:05.037Z,17.80
2018-08-25T13:31:32.840Z,17.60
2018-08-25T13:34:00.511Z,17.60
2018-08-25T13:36:28.216Z,17.60
2018-08-25T13:38:55.954Z,17.70
2018-08-25T13:41:23.839Z,17.70
2018-08-25T13:43:51.526Z,17.80
2018-08-25T13:46:19.475Z,17.60
2018-08-25T13:48:47.500Z,17.60
2018-08-25T13:51:15.191Z,17.60
2018-08-25T13:53:42.865Z,17.30
2018-08-25T13:56:10.598Z,17.10
2018-08-25T13:58:38.372Z,16.90
2018-08-25T14:01:06.168Z,16.50
2018-08-25T14:03:33.895Z,16.30
2018-08-25T14:06:01.651Z,16.30
2018-08-25T14:08:29.574Z,16.30
2018-08-25T14:10:57.475Z,16.30
2018-08-25T14:13:25.250Z,16.10
2018-08-25T14:15:52.996Z,15.90
2018-08-25T14:18:21.201Z,15.40
2018-08-25T14:20:49.127Z,15.00
2018-08-25T14:23:17.113Z,14.80
2018-08-25T14:25:44.927Z,14.90
2018-08-25T14:28:12.676Z,15.00
2018-08-25T14:30:40.520Z,14.90
2018-08-25T14:33:08.304Z,15.00
2018-08-25T14:35:36.004Z,15.10
2018-08-25T14:38:04.120Z,15.10
2018-08-25T14:40:32.023Z,15.30
2018-08-25T14:42:59.684Z,15.40
2018-08-25T14:45:27.443Z,15.50
2018-08-25T14:47:55.183Z,15.70
2018-08-25T14:50:22.948Z,15.80
2018-08-25T14:52:50.792Z,16.10
2018-08-25T14:55:18.611Z,16.30
2018-08-25T14:57:46.551Z,16.30
2018-08-25T15:00:36.241Z,16.30
2018-08-25T15:03:20.978Z,16.20
2018-08-25T15:05:48.781Z,16.10
2018-08-25T15:08:16.616Z,16.20
2018-08-25T15:10:44.275Z,16.40
2018-08-25T15:13:11.974Z,16.50
2018-08-25T15:15:39.730Z,16.60
2018-08-25T15:18:07.441Z,16.50
2018-08-25T15:20:35.130Z,16.40
2018-08-25T15:23:02.845Z,16.40
2018-08-25T15:25:30.543Z,16.40
2018-08-25T15:27:58.208Z,16.50
2018-08-25T15:30:26.060Z,16.60
2018-08-25T15:32:53.812Z,16.50
2018-08-25T15:35:21.613Z,16.50
2018-08-25T15:37:49.396Z,16.60
2018-08-25T15:40:17.455Z,16.60
2018-08-25T15:42:45.298Z,16.60
2018-08-25T15:45:13.156Z,16.60
2018-08-25T15:47:40.875Z,16.50
2018-08-25T15:50:08.823Z,16.60
2018-08-25T15:52:36.606Z,16.60
2018-08-25T15:55:05.193Z,16.60
2018-08-25T15:57:33.022Z,16.60
2018-08-25T16:00:00.795Z,16.50
2018-08-25T16:02:28.499Z,16.60
2018-08-25T16:04:56.549Z,16.40
2018-08-25T16:07:24.285Z,16.40
2018-08-25T16:09:52.267Z,16.50
2018-08-25T16:12:20.035Z,16.50
2018-08-25T16:14:47.751Z,16.50
2018-08-25T16:17:15.585Z,16.50
2018-08-25T16:19:43.516Z,16.50
2018-08-25T16:22:11.545Z,16.50
2018-08-25T16:24:39.310Z,16.50
2018-08-25T16:27:08.091Z,16.40
2018-08-25T16:29:36.202Z,16.40
2018-08-25T16:32:03.982Z,16.40
2018-08-25T16:34:31.896Z,16.40
2018-08-25T16:36:59.647Z,16.30
2018-08-25T16:39:27.401Z,16.30
2018-08-25T16:41:55.156Z,16.30
2018-08-25T16:44:22.917Z,16.30
2018-08-25T16:46:51.002Z,16.30
2018-08-25T16:49:18.846Z,16.30
2018-08-25T16:51:46.715Z,16.30
2018-08-25T16:54:14.418Z,16.20
2018-08-25T16:56:42.116Z,16.20
2018-08-25T16:59:09.912Z,16.20
2018-08-25T17:01:37.690Z,16.20
2018-08-25T17:04:05.805Z,16.20
2018-08-25T17:06:33.562Z,16.20
2018-08-25T17:09:01.592Z,16.20
2018-08-25T17:11:29.323Z,16.20
2018-08-25T17:13:57.151Z,16.20
2018-08-25T17:16:24.853Z,16.20
2018-08-25T17:18:52.644Z,16.30
2018-08-25T17:21:20.346Z,16.40
2018-08-25T17:23:48.241Z,16.40
2018-08-25T17:26:16.402Z,16.40
2018-08-25T17:28:44.096Z,16.30
2018-08-25T17:31:11.814Z,16.20
2018-08-25T17:33:39.509Z,16.20
2018-08-25T17:36:07.343Z,16.10
2018-08-25T17:38:35.076Z,16.10
2018-08-25T17:41:02.725Z,16.00
2018-08-25T17:43:30.598Z,15.90
2018-08-25T17:45:58.595Z,15.80
2018-08-25T17:48:26.279Z,15.70
2018-08-25T17:50:53.985Z,15.70
2018-08-25T17:53:21.668Z,15.50
2018-08-25T17:55:49.526Z,15.40
2018-08-25T17:58:17.198Z,15.40
2018-08-25T18:00:44.935Z,15.30
2018-08-25T18:03:13.246Z,15.20
2018-08-25T18:05:40.944Z,15.10
2018-08-25T18:08:08.820Z,15.10
2018-08-25T18:10:36.578Z,15.00
2018-08-25T18:13:04.479Z,14.90
2018-08-25T18:15:32.171Z,14.80
2018-08-25T18:17:59.874Z,14.70
2018-08-25T18:20:27.557Z,14.60
2018-08-25T18:22:55.471Z,14.40
2018-08-25T18:25:23.336Z,14.20
2018-08-25T18:27:50.996Z,14.10
2018-08-25T18:30:18.702Z,14.00
2018-08-25T18:32:46.518Z,13.80
2018-08-25T18:35:14.571Z,13.60
2018-08-25T18:37:42.275Z,13.50
2018-08-25T18:40:10.188Z,13.50
2018-08-25T18:42:37.899Z,13.40
2018-08-25T18:45:05.815Z,13.40
2018-08-25T18:47:33.760Z,13.30
2018-08-25T18:50:01.442Z,13.30
2018-08-25T18:52:29.255Z,13.20
2018-08-25T18:54:57.034Z,13.20
2018-08-25T18:57:24.739Z,13.30
2018-08-25T18:59:52.503Z,13.10
2018-08-25T19:02:20.318Z,13.10
2018-08-25T19:04:48.075Z,13.00
2018-08-25T19:07:15.792Z,12.90
2018-08-25T19:09:43.655Z,12.80
2018-08-25T19:12:11.472Z,12.80
2018-08-25T19:14:39.188Z,12.70
2018-08-25T19:17:07.004Z,12.70
2018-08-25T19:19:34.805Z,12.60
2018-08-25T19:22:02.614Z,12.60
2018-08-25T19:24:30.390Z,12.60
2018-08-25T19:26:58.166Z,12.50
2018-08-25T19:29:25.923Z,12.50
2018-08-25T19:31:53.711Z,12.50
2018-08-25T19:34:21.672Z,12.40
2018-08-25T19:36:49.819Z,12.30
2018-08-25T19:39:17.516Z,12.20
2018-08-25T19:41:45.258Z,12.10
2018-08-25T19:44:13.196Z,12.00
2018-08-25T19:46:41.200Z,11.90
2018-08-25T19:49:09.258Z,11.80
2018-08-25T19:51:37.032Z,11.70
2018-08-25T19:54:05.036Z,11.60
2018-08-25T19:56:32.813Z,11.40
2018-08-25T19:59:00.611Z,11.30
2018-08-25T20:01:28.390Z,11.30
2018-08-25T20:03:56.137Z,11.20
2018-08-25T20:06:23.860Z,11.00
2018-08-25T20:08:51.607Z,10.90
2018-08-25T20:11:19.323Z,10.80
2018-08-25T20:13:47.395Z,10.70
2018-08-25T20:16:15.787Z,10.70
2018-08-25T20:18:43.632Z,10.60
2018-08-25T20:21:11.394Z,10.50
2018-08-25T20:23:39.255Z,10.40
2018-08-25T20:26:07.171Z,10.40
2018-08-25T20:28:34.924Z,10.40
2018-08-25T20:31:02.647Z,10.40
2018-08-25T20:33:30.417Z,10.40
2018-08-25T20:35:58.421Z,10.40
2018-08-25T20:38:26.187Z,10.50
2018-08-25T20:40:54.027Z,10.70
2018-08-25T20:43:21.748Z,10.80
2018-08-25T20:45:49.512Z,10.80
2018-08-25T20:48:17.244Z,10.80
2018-08-25T20:50:45.043Z,10.90
2018-08-25T20:53:12.879Z,10.90
2018-08-25T20:55:40.779Z,10.90
2018-08-25T20:58:08.538Z,10.80
2018-08-25T21:00:36.342Z,10.80
2018-08-25T21:03:04.168Z,10.70
2018-08-25T21:05:32.147Z,10.70
2018-08-25T21:08:00.176Z,10.60
2018-08-25T21:13:10.214Z,10.60
2018-08-25T21:15:38.065Z,10.60
2018-08-25T21:18:05.856Z,10.70
2018-08-25T21:20:35.726Z,10.70
2018-08-25T21:23:03.519Z,10.70
2018-08-25T21:25:31.731Z,10.70
2018-08-25T21:27:59.586Z,10.70
2018-08-25T21:30:27.467Z,10.80
2018-08-25T21:32:55.306Z,10.70
2018-08-25T21:35:23.007Z,10.70
2018-08-25T21:37:50.803Z,10.70
2018-08-25T21:40:18.595Z,10.60
2018-08-25T21:42:46.339Z,10.60
2018-08-25T21:45:20.757Z,10.50
2018-08-25T21:47:48.605Z,10.50
2018-08-25T21:50:16.425Z,10.50
2018-08-25T21:52:44.477Z,10.60
2018-08-25T21:55:12.367Z,10.50
2018-08-25T21:57:40.106Z,10.40
2018-08-25T22:00:08.461Z,10.40
2018-08-25T22:02:36.197Z,10.30
2018-08-25T22:05:03.975Z,10.30
2018-08-25T22:07:31.862Z,10.30
2018-08-25T22:09:59.617Z,10.30
2018-08-25T22:12:27.443Z,10.20
2018-08-25T22:14:55.176Z,10.10
2018-08-25T22:17:23.141Z,10.10
2018-08-25T22:19:50.852Z,10.00
2018-08-25T22:22:18.818Z,9.90
2018-08-25T22:24:46.638Z,9.80
2018-08-25T22:27:14.988Z,9.80
2018-08-25T22:29:42.920Z,9.70
2018-08-25T22:32:10.683Z,9.60
2018-08-25T22:34:38.642Z,9.50
2018-08-25T22:37:06.634Z,9.50
2018-08-25T22:39:34.377Z,9.40
2018-08-25T22:42:02.391Z,9.30
2018-08-25T22:44:30.558Z,9.20
2018-08-25T22:46:58.356Z,9.10
2018-08-25T22:49:26.100Z,9.00
2018-08-25T22:51:53.826Z,8.90
2018-08-25T22:54:22.054Z,8.80
2018-08-25T22:56:49.794Z,8.80
2018-08-25T22:59:17.514Z,8.80
2018-08-25T23:01:45.323Z,8.70
2018-08-25T23:04:13.019Z,8.70
2018-08-25T23:06:40.849Z,8.70
2018-08-25T23:09:09.451Z,8.70
2018-08-25T23:11:38.070Z,8.80
2018-08-25T23:14:05.974Z,8.80
2018-08-25T23:16:34.188Z,8.90
2018-08-25T23:19:02.185Z,9.00
2018-08-25T23:21:30.000Z,9.10
2018-08-25T23:23:58.084Z,9.10
2018-08-25T23:26:26.009Z,9.00
2018-08-25T23:28:54.020Z,8.90
2018-08-25T23:31:21.780Z,8.70
2018-08-25T23:33:49.484Z,8.60
2018-08-25T23:36:17.311Z,8.60
2018-08-25T23:38:45.203Z,8.50
2018-08-25T23:41:12.914Z,8.40
2018-08-25T23:43:40.928Z,8.30
2018-08-25T23:46:08.627Z,8.30
2018-08-25T23:48:36.581Z,8.20
2018-08-25T23:51:04.445Z,8.60
2018-08-25T23:53:32.216Z,8.20
2018-08-25T23:55:59.951Z,8.10
2018-08-25T23:58:27.719Z,8.10
